CheckWX is a tool to help pilots better visualize weather data.  It is not intended as a substitute for an official pre-flight weather briefing.

06:00:23 UTC

CYQB TAF
Quebec / Jean Lesage International Airport
Quebec, Canada
TAF CYQB 250538Z 2506/2606 28006KT P6SM SKC BECMG 2512/2514 27012KT FM251600 25012G22KT P6SM BKN040 TEMPO 2519/2524 5SM -SHSN OVC030 BECMG 2519/2521 26015G25KT FM260000 27012KT P6SM BKN050 TEMPO 2600/2605 5SM -SHSN FM260500 31012KT P6SM SKC RMK NXT FCST BY 251200Z

Mar-25@
06:00 UTC

Mar-25 @ 06:00 UTC

Mar-25@
12:00 UTC

Mar-25 @ 12:00 UTC

TAF CYQB 250538Z 2506/2606 28006KT P6SM SKC
Wind
  • 280° at 6 KTS
Cloud Levels
  • Clear skies

Mar-25@
12:00 UTC

Mar-25 @ 12:00 UTC

Mar-25@
16:00 UTC

Mar-25 @ 16:00 UTC

BECMG 2512/2514 27012KT

Becoming

Becoming Conditions expected by Mon, Mar 25, 2019 @ 14:00 UTC

Wind
  • 270° at 12 KTS
Cloud Levels
  • Clear skies

Mar-25@
16:00 UTC

Mar-25 @ 16:00 UTC

Mar-25@
19:00 UTC

Mar-25 @ 19:00 UTC

FM251600 25012G22KT P6SM BKN040

From

From Standard forecast or significant change

Wind
  • 250° at 12 KTS
  • {Gusting to 22 KTS
Cloud Levels
  • Broken at 4,000' AGL

Mar-25@
19:00 UTC

Mar-25 @ 19:00 UTC

Mar-26@
00:00 UTC

Mar-26 @ 00:00 UTC

BECMG 2519/2521 26015G25KT

Becoming

Becoming Conditions expected by Mon, Mar 25, 2019 @ 21:00 UTC

Wind
  • 260° at 15 KTS
  • {Gusting to 25 KTS
Cloud Levels
  • Broken at 4,000' AGL

Mar-25@
19:00 UTC

Mar-25 @ 19:00 UTC

Mar-26@
00:00 UTC

Mar-26 @ 00:00 UTC

TEMPO 2519/2524 5SM -SHSN OVC030

Temporary

Temporary Changes expected for less than half the time period

Conditions
Light Snow
Cloud Levels
  • Overcast at 3,000' AGL

Mar-26@
00:00 UTC

Mar-26 @ 00:00 UTC

Mar-26@
05:00 UTC

Mar-26 @ 05:00 UTC

TEMPO 2600/2605 5SM -SHSN

Temporary

Temporary Changes expected for less than half the time period

Conditions
Light Snow

Mar-26@
00:00 UTC

Mar-26 @ 00:00 UTC

Mar-26@
05:00 UTC

Mar-26 @ 05:00 UTC

FM260000 27012KT P6SM BKN050

From

From Standard forecast or significant change

Wind
  • 270° at 12 KTS
Cloud Levels
  • Broken at 5,000' AGL

Mar-26@
05:00 UTC

Mar-26 @ 05:00 UTC

Mar-26@
06:00 UTC

Mar-26 @ 06:00 UTC

FM260500 31012KT P6SM SKC RMK NXT FCST BY 251200Z

From

From Standard forecast or significant change

Wind
  • 310° at 12 KTS
Cloud Levels
  • Clear skies